sensor_id;sensor_type;location;lat;lon;timestamp;P1;durP1;ratioP1;P2;durP2;ratioP2
81355;SDS011;70811;51.152;-114.218;2023-07-16T00:02:11;0.38;;;0.10;;
81355;SDS011;70811;51.152;-114.218;2023-07-16T00:04:37;0.20;;;0.10;;
81355;SDS011;70811;51.152;-114.218;2023-07-16T00:07:03;0.40;;;0.20;;
81355;SDS011;70811;51.152;-114.218;2023-07-16T00:09:29;0.40;;;0.20;;
81355;SDS011;70811;51.152;-114.218;2023-07-16T00:11:55;0.47;;;0.20;;
81355;SDS011;70811;51.152;-114.218;2023-07-16T00:14:21;0.50;;;0.30;;
81355;SDS011;70811;51.152;-114.218;2023-07-16T00:16:47;0.20;;;0.20;;
81355;SDS011;70811;51.152;-114.218;2023-07-16T00:19:14;0.35;;;0.13;;
81355;SDS011;70811;51.152;-114.218;2023-07-16T00:21:40;0.22;;;0.10;;
81355;SDS011;70811;51.152;-114.218;2023-07-16T00:24:06;0.40;;;0.20;;
81355;SDS011;70811;51.152;-114.218;2023-07-16T00:26:32;0.68;;;0.30;;
81355;SDS011;70811;51.152;-114.218;2023-07-16T00:28:58;1.25;;;0.25;;
81355;SDS011;70811;51.152;-114.218;2023-07-16T00:31:24;0.57;;;0.20;;
81355;SDS011;70811;51.152;-114.218;2023-07-16T00:33:50;0.30;;;0.10;;
81355;SDS011;70811;51.152;-114.218;2023-07-16T00:36:16;0.30;;;0.10;;
81355;SDS011;70811;51.152;-114.218;2023-07-16T00:38:41;0.40;;;0.20;;
81355;SDS011;70811;51.152;-114.218;2023-07-16T00:41:08;0.63;;;0.20;;
81355;SDS011;70811;51.152;-114.218;2023-07-16T00:43:34;0.30;;;0.22;;
81355;SDS011;70811;51.152;-114.218;2023-07-16T00:46:00;0.20;;;0.10;;
81355;SDS011;70811;51.152;-114.218;2023-07-16T00:48:26;0.57;;;0.20;;
81355;SDS011;70811;51.152;-114.218;2023-07-16T00:50:52;0.57;;;0.30;;
81355;SDS011;70811;51.152;-114.218;2023-07-16T00:53:19;0.35;;;0.17;;
81355;SDS011;70811;51.152;-114.218;2023-07-16T00:55:45;0.30;;;0.10;;
81355;SDS011;70811;51.152;-114.218;2023-07-16T00:58:11;0.32;;;0.20;;
81355;SDS011;70811;51.152;-114.218;2023-07-16T01:00:38;0.17;;;0.10;;
81355;SDS011;70811;51.152;-114.218;2023-07-16T01:03:05;0.50;;;0.20;;
81355;SDS011;70811;51.152;-114.218;2023-07-16T01:06:18;0.10;;;0.10;;
81355;SDS011;70811;51.152;-114.218;2023-07-16T01:08:20;0.70;;;0.20;;
81355;SDS011;70811;51.152;-114.218;2023-07-16T01:10:47;0.40;;;0.20;;
81355;SDS011;70811;51.152;-114.218;2023-07-16T01:13:13;0.45;;;0.20;;
81355;SDS011;70811;51.152;-114.218;2023-07-16T01:15:40;0.28;;;0.15;;
81355;SDS011;70811;51.152;-114.218;2023-07-16T01:18:06;0.30;;;0.20;;
81355;SDS011;70811;51.152;-114.218;2023-07-16T01:20:32;0.20;;;0.10;;
81355;SDS011;70811;51.152;-114.218;2023-07-16T01:30:24;0.10;;;0.03;;
81355;SDS011;70811;51.152;-114.218;2023-07-16T01:32:52;5.15;;;0.30;;
81355;SDS011;70811;51.152;-114.218;2023-07-16T01:35:18;0.50;;;0.30;;
81355;SDS011;70811;51.152;-114.218;2023-07-16T01:37:44;0.30;;;0.17;;
81355;SDS011;70811;51.152;-114.218;2023-07-16T01:40:10;1.83;;;0.38;;
81355;SDS011;70811;51.152;-114.218;2023-07-16T01:42:36;0.63;;;0.30;;
81355;SDS011;70811;51.152;-114.218;2023-07-16T01:50:06;0.90;;;0.50;;
81355;SDS011;70811;51.152;-114.218;2023-07-16T01:52:32;0.95;;;0.30;;
81355;SDS011;70811;51.152;-114.218;2023-07-16T01:54:58;0.90;;;0.30;;
81355;SDS011;70811;51.152;-114.218;2023-07-16T01:57:23;1.20;;;0.50;;
81355;SDS011;70811;51.152;-114.218;2023-07-16T01:59:49;2.85;;;1.02;;
81355;SDS011;70811;51.152;-114.218;2023-07-16T02:02:15;2.60;;;0.77;;
81355;SDS011;70811;51.152;-114.218;2023-07-16T02:04:41;1.55;;;0.50;;
81355;SDS011;70811;51.152;-114.218;2023-07-16T02:07:07;1.05;;;0.50;;
81355;SDS011;70811;51.152;-114.218;2023-07-16T02:09:33;2.30;;;0.52;;
81355;SDS011;70811;51.152;-114.218;2023-07-16T02:11:59;0.57;;;0.45;;
81355;SDS011;70811;51.152;-114.218;2023-07-16T02:14:25;1.40;;;0.52;;
81355;SDS011;70811;51.152;-114.218;2023-07-16T02:16:51;1.25;;;0.80;;
81355;SDS011;70811;51.152;-114.218;2023-07-16T02:19:17;1.20;;;0.63;;
81355;SDS011;70811;51.152;-114.218;2023-07-16T02:21:43;1.63;;;0.70;;
81355;SDS011;70811;51.152;-114.218;2023-07-16T02:24:09;1.85;;;0.75;;
81355;SDS011;70811;51.152;-114.218;2023-07-16T02:26:34;1.88;;;0.57;;
81355;SDS011;70811;51.152;-114.218;2023-07-16T02:29:00;0.82;;;0.50;;
81355;SDS011;70811;51.152;-114.218;2023-07-16T02:31:26;1.33;;;0.40;;
81355;SDS011;70811;51.152;-114.218;2023-07-16T02:33:52;0.75;;;0.35;;
81355;SDS011;70811;51.152;-114.218;2023-07-16T02:36:18;1.33;;;0.50;;
81355;SDS011;70811;51.152;-114.218;2023-07-16T02:38:44;0.88;;;0.50;;
81355;SDS011;70811;51.152;-114.218;2023-07-16T02:41:10;0.70;;;0.43;;
81355;SDS011;70811;51.152;-114.218;2023-07-16T02:43:36;1.40;;;0.50;;
81355;SDS011;70811;51.152;-114.218;2023-07-16T02:46:02;0.63;;;0.40;;
81355;SDS011;70811;51.152;-114.218;2023-07-16T02:48:28;0.82;;;0.40;;
81355;SDS011;70811;51.152;-114.218;2023-07-16T02:50:54;0.75;;;0.50;;
81355;SDS011;70811;51.152;-114.218;2023-07-16T02:53:20;1.00;;;0.50;;
81355;SDS011;70811;51.152;-114.218;2023-07-16T02:55:45;1.05;;;0.43;;
81355;SDS011;70811;51.152;-114.218;2023-07-16T02:58:12;1.48;;;0.50;;
81355;SDS011;70811;51.152;-114.218;2023-07-16T03:00:38;0.88;;;0.40;;
81355;SDS011;70811;51.152;-114.218;2023-07-16T03:03:04;1.13;;;0.52;;
81355;SDS011;70811;51.152;-114.218;2023-07-16T03:05:30;0.50;;;0.20;;
81355;SDS011;70811;51.152;-114.218;2023-07-16T03:07:55;2.75;;;0.30;;
81355;SDS011;70811;51.152;-114.218;2023-07-16T03:10:22;0.70;;;0.40;;
81355;SDS011;70811;51.152;-114.218;2023-07-16T03:12:48;0.75;;;0.50;;
81355;SDS011;70811;51.152;-114.218;2023-07-16T03:15:16;0.43;;;0.20;;
81355;SDS011;70811;51.152;-114.218;2023-07-16T03:17:42;0.70;;;0.30;;
81355;SDS011;70811;51.152;-114.218;2023-07-16T03:20:08;0.35;;;0.20;;
81355;SDS011;70811;51.152;-114.218;2023-07-16T03:22:34;0.95;;;0.40;;
81355;SDS011;70811;51.152;-114.218;2023-07-16T03:25:00;0.90;;;0.38;;
81355;SDS011;70811;51.152;-114.218;2023-07-16T03:27:26;1.20;;;0.45;;
81355;SDS011;70811;51.152;-114.218;2023-07-16T03:29:52;0.45;;;0.20;;
81355;SDS011;70811;51.152;-114.218;2023-07-16T03:32:18;0.40;;;0.20;;
81355;SDS011;70811;51.152;-114.218;2023-07-16T03:34:43;1.00;;;0.40;;
81355;SDS011;70811;51.152;-114.218;2023-07-16T03:37:09;0.70;;;0.30;;
81355;SDS011;70811;51.152;-114.218;2023-07-16T03:39:35;1.00;;;0.30;;
81355;SDS011;70811;51.152;-114.218;2023-07-16T03:42:01;0.90;;;0.30;;
81355;SDS011;70811;51.152;-114.218;2023-07-16T03:44:28;0.70;;;0.40;;
81355;SDS011;70811;51.152;-114.218;2023-07-16T03:46:53;1.05;;;0.40;;
81355;SDS011;70811;51.152;-114.218;2023-07-16T03:49:19;0.90;;;0.30;;
81355;SDS011;70811;51.152;-114.218;2023-07-16T03:51:45;0.70;;;0.35;;
81355;SDS011;70811;51.152;-114.218;2023-07-16T03:54:11;0.70;;;0.40;;
81355;SDS011;70811;51.152;-114.218;2023-07-16T03:56:37;0.80;;;0.32;;
81355;SDS011;70811;51.152;-114.218;2023-07-16T03:59:03;0.47;;;0.32;;
81355;SDS011;70811;51.152;-114.218;2023-07-16T04:01:29;1.05;;;0.50;;
81355;SDS011;70811;51.152;-114.218;2023-07-16T04:03:55;0.93;;;0.40;;
81355;SDS011;70811;51.152;-114.218;2023-07-16T04:08:46;0.75;;;0.30;;
81355;SDS011;70811;51.152;-114.218;2023-07-16T04:11:12;0.75;;;0.30;;
81355;SDS011;70811;51.152;-114.218;2023-07-16T04:13:38;0.70;;;0.40;;
81355;SDS011;70811;51.152;-114.218;2023-07-16T04:16:04;0.80;;;0.45;;
81355;SDS011;70811;51.152;-114.218;2023-07-16T04:18:30;0.90;;;0.40;;
81355;SDS011;70811;51.152;-114.218;2023-07-16T04:20:56;0.90;;;0.45;;
81355;SDS011;70811;51.152;-114.218;2023-07-16T04:23:22;0.38;;;0.32;;
81355;SDS011;70811;51.152;-114.218;2023-07-16T04:25:51;0.68;;;0.30;;
81355;SDS011;70811;51.152;-114.218;2023-07-16T04:28:18;0.80;;;0.30;;
81355;SDS011;70811;51.152;-114.218;2023-07-16T04:30:44;0.98;;;0.47;;
81355;SDS011;70811;51.152;-114.218;2023-07-16T04:33:10;0.55;;;0.30;;
81355;SDS011;70811;51.152;-114.218;2023-07-16T04:35:36;0.65;;;0.30;;
81355;SDS011;70811;51.152;-114.218;2023-07-16T04:38:02;0.63;;;0.40;;
81355;SDS011;70811;51.152;-114.218;2023-07-16T04:40:31;0.52;;;0.30;;
81355;SDS011;70811;51.152;-114.218;2023-07-16T04:42:57;1.20;;;0.38;;
81355;SDS011;70811;51.152;-114.218;2023-07-16T04:45:22;1.48;;;0.40;;
81355;SDS011;70811;51.152;-114.218;2023-07-16T04:47:48;0.50;;;0.30;;
81355;SDS011;70811;51.152;-114.218;2023-07-16T04:50:14;0.40;;;0.20;;
81355;SDS011;70811;51.152;-114.218;2023-07-16T04:52:40;0.50;;;0.20;;
81355;SDS011;70811;51.152;-114.218;2023-07-16T04:57:32;0.55;;;0.20;;
81355;SDS011;70811;51.152;-114.218;2023-07-16T04:59:58;0.80;;;0.45;;
81355;SDS011;70811;51.152;-114.218;2023-07-16T05:02:24;0.50;;;0.20;;
81355;SDS011;70811;51.152;-114.218;2023-07-16T05:04:50;0.30;;;0.13;;
81355;SDS011;70811;51.152;-114.218;2023-07-16T05:07:16;0.60;;;0.22;;
81355;SDS011;70811;51.152;-114.218;2023-07-16T05:09:42;0.50;;;0.20;;
81355;SDS011;70811;51.152;-114.218;2023-07-16T05:12:08;0.65;;;0.30;;
81355;SDS011;70811;51.152;-114.218;2023-07-16T05:14:43;0.30;;;0.20;;
81355;SDS011;70811;51.152;-114.218;2023-07-16T05:17:09;0.15;;;0.10;;
81355;SDS011;70811;51.152;-114.218;2023-07-16T05:19:35;0.13;;;0.10;;
81355;SDS011;70811;51.152;-114.218;2023-07-16T05:22:01;0.30;;;0.17;;
81355;SDS011;70811;51.152;-114.218;2023-07-16T05:24:27;0.35;;;0.20;;
81355;SDS011;70811;51.152;-114.218;2023-07-16T05:26:53;0.50;;;0.20;;
81355;SDS011;70811;51.152;-114.218;2023-07-16T05:29:19;0.47;;;0.20;;
81355;SDS011;70811;51.152;-114.218;2023-07-16T05:31:45;0.50;;;0.20;;
81355;SDS011;70811;51.152;-114.218;2023-07-16T05:34:12;0.63;;;0.20;;
81355;SDS011;70811;51.152;-114.218;2023-07-16T05:36:38;0.50;;;0.30;;
81355;SDS011;70811;51.152;-114.218;2023-07-16T05:39:04;0.30;;;0.17;;
81355;SDS011;70811;51.152;-114.218;2023-07-16T05:41:30;0.40;;;0.20;;
81355;SDS011;70811;51.152;-114.218;2023-07-16T05:43:56;0.40;;;0.20;;
81355;SDS011;70811;51.152;-114.218;2023-07-16T05:46:22;0.20;;;0.10;;
81355;SDS011;70811;51.152;-114.218;2023-07-16T05:48:47;0.22;;;0.10;;
81355;SDS011;70811;51.152;-114.218;2023-07-16T05:51:13;0.28;;;0.13;;
81355;SDS011;70811;51.152;-114.218;2023-07-16T05:53:39;0.38;;;0.15;;
81355;SDS011;70811;51.152;-114.218;2023-07-16T05:56:05;0.32;;;0.13;;
81355;SDS011;70811;51.152;-114.218;2023-07-16T05:58:31;0.30;;;0.20;;
81355;SDS011;70811;51.152;-114.218;2023-07-16T06:00:57;0.50;;;0.20;;
81355;SDS011;70811;51.152;-114.218;2023-07-16T06:03:23;0.52;;;0.20;;
81355;SDS011;70811;51.152;-114.218;2023-07-16T06:05:49;0.52;;;0.30;;
81355;SDS011;70811;51.152;-114.218;2023-07-16T06:08:15;0.15;;;0.10;;
81355;SDS011;70811;51.152;-114.218;2023-07-16T06:10:41;0.30;;;0.20;;
81355;SDS011;70811;51.152;-114.218;2023-07-16T06:13:07;0.47;;;0.10;;
81355;SDS011;70811;51.152;-114.218;2023-07-16T06:15:33;0.38;;;0.20;;
81355;SDS011;70811;51.152;-114.218;2023-07-16T06:17:59;0.50;;;0.20;;
81355;SDS011;70811;51.152;-114.218;2023-07-16T06:20:25;0.70;;;0.30;;
81355;SDS011;70811;51.152;-114.218;2023-07-16T06:22:51;0.52;;;0.30;;
81355;SDS011;70811;51.152;-114.218;2023-07-16T06:25:17;0.47;;;0.28;;
81355;SDS011;70811;51.152;-114.218;2023-07-16T06:27:43;0.90;;;0.20;;
81355;SDS011;70811;51.152;-114.218;2023-07-16T06:30:09;0.30;;;0.20;;
81355;SDS011;70811;51.152;-114.218;2023-07-16T06:32:35;0.22;;;0.10;;
81355;SDS011;70811;51.152;-114.218;2023-07-16T06:35:01;0.93;;;0.30;;
81355;SDS011;70811;51.152;-114.218;2023-07-16T06:37:27;0.40;;;0.20;;
81355;SDS011;70811;51.152;-114.218;2023-07-16T06:42:18;0.30;;;0.10;;
81355;SDS011;70811;51.152;-114.218;2023-07-16T06:44:44;0.30;;;0.20;;
81355;SDS011;70811;51.152;-114.218;2023-07-16T06:47:10;0.40;;;0.20;;
81355;SDS011;70811;51.152;-114.218;2023-07-16T06:49:36;0.82;;;0.40;;
81355;SDS011;70811;51.152;-114.218;2023-07-16T06:52:02;0.60;;;0.30;;
81355;SDS011;70811;51.152;-114.218;2023-07-16T06:54:28;0.80;;;0.30;;
81355;SDS011;70811;51.152;-114.218;2023-07-16T06:56:54;0.47;;;0.20;;
81355;SDS011;70811;51.152;-114.218;2023-07-16T07:01:45;0.47;;;0.20;;
81355;SDS011;70811;51.152;-114.218;2023-07-16T07:04:11;1.17;;;0.30;;
81355;SDS011;70811;51.152;-114.218;2023-07-16T07:06:37;0.45;;;0.30;;
81355;SDS011;70811;51.152;-114.218;2023-07-16T07:09:03;0.73;;;0.30;;
81355;SDS011;70811;51.152;-114.218;2023-07-16T07:11:29;1.45;;;0.28;;
81355;SDS011;70811;51.152;-114.218;2023-07-16T07:13:55;0.70;;;0.32;;
81355;SDS011;70811;51.152;-114.218;2023-07-16T07:16:22;0.28;;;0.20;;
81355;SDS011;70811;51.152;-114.218;2023-07-16T07:18:49;0.35;;;0.20;;
81355;SDS011;70811;51.152;-114.218;2023-07-16T07:21:14;0.38;;;0.25;;
81355;SDS011;70811;51.152;-114.218;2023-07-16T07:23:40;0.80;;;0.40;;
81355;SDS011;70811;51.152;-114.218;2023-07-16T07:26:06;0.20;;;0.10;;
81355;SDS011;70811;51.152;-114.218;2023-07-16T07:28:32;0.77;;;0.35;;
81355;SDS011;70811;51.152;-114.218;2023-07-16T07:30:59;0.50;;;0.22;;
81355;SDS011;70811;51.152;-114.218;2023-07-16T07:33:25;1.23;;;0.40;;
81355;SDS011;70811;51.152;-114.218;2023-07-16T07:35:53;0.50;;;0.30;;
81355;SDS011;70811;51.152;-114.218;2023-07-16T07:38:19;0.50;;;0.25;;
81355;SDS011;70811;51.152;-114.218;2023-07-16T07:40:46;0.43;;;0.20;;
81355;SDS011;70811;51.152;-114.218;2023-07-16T07:43:11;0.30;;;0.13;;
81355;SDS011;70811;51.152;-114.218;2023-07-16T07:48:03;2.58;;;0.30;;
81355;SDS011;70811;51.152;-114.218;2023-07-16T07:52:54;0.50;;;0.30;;
81355;SDS011;70811;51.152;-114.218;2023-07-16T07:57:45;0.47;;;0.20;;
81355;SDS011;70811;51.152;-114.218;2023-07-16T08:00:11;1.35;;;0.20;;
81355;SDS011;70811;51.152;-114.218;2023-07-16T08:02:38;1.17;;;0.22;;
81355;SDS011;70811;51.152;-114.218;2023-07-16T08:05:04;0.40;;;0.20;;
81355;SDS011;70811;51.152;-114.218;2023-07-16T08:07:30;0.20;;;0.10;;
81355;SDS011;70811;51.152;-114.218;2023-07-16T08:12:21;1.67;;;0.22;;
81355;SDS011;70811;51.152;-114.218;2023-07-16T08:14:47;0.40;;;0.20;;
81355;SDS011;70811;51.152;-114.218;2023-07-16T08:17:13;0.30;;;0.20;;
81355;SDS011;70811;51.152;-114.218;2023-07-16T08:19:39;0.20;;;0.10;;
81355;SDS011;70811;51.152;-114.218;2023-07-16T08:22:05;0.60;;;0.28;;
81355;SDS011;70811;51.152;-114.218;2023-07-16T08:24:31;1.10;;;0.17;;
81355;SDS011;70811;51.152;-114.218;2023-07-16T08:26:57;0.68;;;0.38;;
81355;SDS011;70811;51.152;-114.218;2023-07-16T08:29:23;2.10;;;0.20;;
81355;SDS011;70811;51.152;-114.218;2023-07-16T08:31:49;0.20;;;0.10;;
81355;SDS011;70811;51.152;-114.218;2023-07-16T08:34:15;0.28;;;0.10;;
81355;SDS011;70811;51.152;-114.218;2023-07-16T08:36:41;0.52;;;0.20;;
81355;SDS011;70811;51.152;-114.218;2023-07-16T08:39:09;0.30;;;0.20;;
81355;SDS011;70811;51.152;-114.218;2023-07-16T08:41:35;0.47;;;0.20;;
81355;SDS011;70811;51.152;-114.218;2023-07-16T08:44:01;0.35;;;0.20;;
81355;SDS011;70811;51.152;-114.218;2023-07-16T08:48:52;0.60;;;0.30;;
81355;SDS011;70811;51.152;-114.218;2023-07-16T08:51:19;0.45;;;0.20;;
81355;SDS011;70811;51.152;-114.218;2023-07-16T08:53:46;0.50;;;0.20;;
81355;SDS011;70811;51.152;-114.218;2023-07-16T08:56:12;0.10;;;0.10;;
81355;SDS011;70811;51.152;-114.218;2023-07-16T08:58:38;0.15;;;0.10;;
81355;SDS011;70811;51.152;-114.218;2023-07-16T09:01:05;0.38;;;0.10;;
81355;SDS011;70811;51.152;-114.218;2023-07-16T09:03:31;0.30;;;0.20;;
81355;SDS011;70811;51.152;-114.218;2023-07-16T09:05:57;1.42;;;0.20;;
81355;SDS011;70811;51.152;-114.218;2023-07-16T09:08:23;0.10;;;0.10;;
81355;SDS011;70811;51.152;-114.218;2023-07-16T09:10:54;0.25;;;0.15;;
81355;SDS011;70811;51.152;-114.218;2023-07-16T09:13:20;0.73;;;0.30;;
81355;SDS011;70811;51.152;-114.218;2023-07-16T09:15:55;0.32;;;0.20;;
81355;SDS011;70811;51.152;-114.218;2023-07-16T09:18:25;0.28;;;0.10;;
81355;SDS011;70811;51.152;-114.218;2023-07-16T09:20:58;0.38;;;0.10;;
81355;SDS011;70811;51.152;-114.218;2023-07-16T09:23:27;0.57;;;0.30;;
81355;SDS011;70811;51.152;-114.218;2023-07-16T09:25:53;0.30;;;0.13;;
81355;SDS011;70811;51.152;-114.218;2023-07-16T09:28:19;0.47;;;0.28;;
81355;SDS011;70811;51.152;-114.218;2023-07-16T09:30:46;0.20;;;0.20;;
81355;SDS011;70811;51.152;-114.218;2023-07-16T09:33:13;1.27;;;0.22;;
81355;SDS011;70811;51.152;-114.218;2023-07-16T09:35:40;0.95;;;0.30;;
81355;SDS011;70811;51.152;-114.218;2023-07-16T09:38:07;1.40;;;0.30;;
81355;SDS011;70811;51.152;-114.218;2023-07-16T09:40:33;1.25;;;0.20;;
81355;SDS011;70811;51.152;-114.218;2023-07-16T09:42:59;1.17;;;0.20;;
81355;SDS011;70811;51.152;-114.218;2023-07-16T09:45:26;0.73;;;0.30;;
81355;SDS011;70811;51.152;-114.218;2023-07-16T09:47:52;0.60;;;0.30;;
81355;SDS011;70811;51.152;-114.218;2023-07-16T09:50:18;0.63;;;0.28;;
81355;SDS011;70811;51.152;-114.218;2023-07-16T09:52:45;2.88;;;1.30;;
81355;SDS011;70811;51.152;-114.218;2023-07-16T09:55:12;0.90;;;0.40;;
81355;SDS011;70811;51.152;-114.218;2023-07-16T09:57:43;0.60;;;0.30;;
81355;SDS011;70811;51.152;-114.218;2023-07-16T10:00:09;0.57;;;0.30;;
81355;SDS011;70811;51.152;-114.218;2023-07-16T10:02:39;0.43;;;0.20;;
81355;SDS011;70811;51.152;-114.218;2023-07-16T10:05:14;0.68;;;0.40;;
81355;SDS011;70811;51.152;-114.218;2023-07-16T10:07:41;0.70;;;0.40;;
81355;SDS011;70811;51.152;-114.218;2023-07-16T10:10:10;0.80;;;0.50;;
81355;SDS011;70811;51.152;-114.218;2023-07-16T10:12:37;1.10;;;0.50;;
81355;SDS011;70811;51.152;-114.218;2023-07-16T10:15:04;0.82;;;0.40;;
81355;SDS011;70811;51.152;-114.218;2023-07-16T10:17:31;0.80;;;0.40;;
81355;SDS011;70811;51.152;-114.218;2023-07-16T10:22:42;0.90;;;0.30;;
81355;SDS011;70811;51.152;-114.218;2023-07-16T10:25:09;0.88;;;0.40;;
81355;SDS011;70811;51.152;-114.218;2023-07-16T10:27:36;0.70;;;0.40;;
81355;SDS011;70811;51.152;-114.218;2023-07-16T10:30:03;1.30;;;0.60;;
81355;SDS011;70811;51.152;-114.218;2023-07-16T10:32:30;0.60;;;0.40;;
81355;SDS011;70811;51.152;-114.218;2023-07-16T10:34:56;1.08;;;0.50;;
81355;SDS011;70811;51.152;-114.218;2023-07-16T10:37:22;1.08;;;0.40;;
81355;SDS011;70811;51.152;-114.218;2023-07-16T10:39:49;0.80;;;0.43;;
81355;SDS011;70811;51.152;-114.218;2023-07-16T10:42:16;1.20;;;0.70;;
81355;SDS011;70811;51.152;-114.218;2023-07-16T10:44:42;0.82;;;0.52;;
81355;SDS011;70811;51.152;-114.218;2023-07-16T10:47:09;1.00;;;0.50;;
81355;SDS011;70811;51.152;-114.218;2023-07-16T10:49:36;1.13;;;0.60;;
81355;SDS011;70811;51.152;-114.218;2023-07-16T10:52:02;1.45;;;0.50;;
81355;SDS011;70811;51.152;-114.218;2023-07-16T10:54:28;1.30;;;0.60;;
81355;SDS011;70811;51.152;-114.218;2023-07-16T10:56:54;0.93;;;0.63;;
81355;SDS011;70811;51.152;-114.218;2023-07-16T10:59:20;1.20;;;0.60;;
81355;SDS011;70811;51.152;-114.218;2023-07-16T11:01:46;0.82;;;0.50;;
81355;SDS011;70811;51.152;-114.218;2023-07-16T11:04:12;1.10;;;0.50;;
81355;SDS011;70811;51.152;-114.218;2023-07-16T11:06:38;1.35;;;0.68;;
81355;SDS011;70811;51.152;-114.218;2023-07-16T11:09:09;1.17;;;0.60;;
81355;SDS011;70811;51.152;-114.218;2023-07-16T11:11:35;1.17;;;0.65;;
81355;SDS011;70811;51.152;-114.218;2023-07-16T11:14:08;0.98;;;0.57;;
81355;SDS011;70811;51.152;-114.218;2023-07-16T11:16:34;1.15;;;0.55;;
81355;SDS011;70811;51.152;-114.218;2023-07-16T11:19:01;1.05;;;0.63;;
81355;SDS011;70811;51.152;-114.218;2023-07-16T11:21:28;1.15;;;0.80;;
81355;SDS011;70811;51.152;-114.218;2023-07-16T11:23:55;1.10;;;0.57;;
81355;SDS011;70811;51.152;-114.218;2023-07-16T11:26:21;1.10;;;0.50;;
81355;SDS011;70811;51.152;-114.218;2023-07-16T11:28:49;0.93;;;0.60;;
81355;SDS011;70811;51.152;-114.218;2023-07-16T11:31:15;1.20;;;0.68;;
81355;SDS011;70811;51.152;-114.218;2023-07-16T11:33:42;1.63;;;0.80;;
81355;SDS011;70811;51.152;-114.218;2023-07-16T11:36:08;1.23;;;0.73;;
81355;SDS011;70811;51.152;-114.218;2023-07-16T11:38:38;1.20;;;0.57;;
81355;SDS011;70811;51.152;-114.218;2023-07-16T11:41:04;1.27;;;0.60;;
81355;SDS011;70811;51.152;-114.218;2023-07-16T11:43:37;1.33;;;0.80;;
81355;SDS011;70811;51.152;-114.218;2023-07-16T11:46:03;1.25;;;0.60;;
81355;SDS011;70811;51.152;-114.218;2023-07-16T11:48:29;1.05;;;0.60;;
81355;SDS011;70811;51.152;-114.218;2023-07-16T11:50:55;1.10;;;0.60;;
81355;SDS011;70811;51.152;-114.218;2023-07-16T11:53:21;1.05;;;0.60;;
81355;SDS011;70811;51.152;-114.218;2023-07-16T11:55:47;1.48;;;0.82;;
81355;SDS011;70811;51.152;-114.218;2023-07-16T11:58:13;1.27;;;0.60;;
81355;SDS011;70811;51.152;-114.218;2023-07-16T12:00:38;1.55;;;0.60;;
81355;SDS011;70811;51.152;-114.218;2023-07-16T12:03:04;1.50;;;0.80;;
81355;SDS011;70811;51.152;-114.218;2023-07-16T12:05:30;1.38;;;0.70;;
81355;SDS011;70811;51.152;-114.218;2023-07-16T12:07:56;1.35;;;0.90;;
81355;SDS011;70811;51.152;-114.218;2023-07-16T12:10:22;1.33;;;0.80;;
81355;SDS011;70811;51.152;-114.218;2023-07-16T12:12:48;2.33;;;0.80;;
81355;SDS011;70811;51.152;-114.218;2023-07-16T12:15:14;1.25;;;0.70;;
81355;SDS011;70811;51.152;-114.218;2023-07-16T12:17:39;1.95;;;1.00;;
81355;SDS011;70811;51.152;-114.218;2023-07-16T12:20:05;1.15;;;0.68;;
81355;SDS011;70811;51.152;-114.218;2023-07-16T12:22:31;1.27;;;0.80;;
81355;SDS011;70811;51.152;-114.218;2023-07-16T12:24:57;1.42;;;0.85;;
81355;SDS011;70811;51.152;-114.218;2023-07-16T12:27:23;1.50;;;0.90;;
81355;SDS011;70811;51.152;-114.218;2023-07-16T12:29:49;1.52;;;0.80;;
81355;SDS011;70811;51.152;-114.218;2023-07-16T12:32:17;1.30;;;0.90;;
81355;SDS011;70811;51.152;-114.218;2023-07-16T12:34:43;1.52;;;0.80;;
81355;SDS011;70811;51.152;-114.218;2023-07-16T12:37:10;1.38;;;0.82;;
81355;SDS011;70811;51.152;-114.218;2023-07-16T12:39:36;1.88;;;0.90;;
81355;SDS011;70811;51.152;-114.218;2023-07-16T12:42:02;1.55;;;0.80;;
81355;SDS011;70811;51.152;-114.218;2023-07-16T12:44:28;1.38;;;0.80;;
81355;SDS011;70811;51.152;-114.218;2023-07-16T12:46:54;1.88;;;0.90;;
81355;SDS011;70811;51.152;-114.218;2023-07-16T12:49:20;1.60;;;0.88;;
81355;SDS011;70811;51.152;-114.218;2023-07-16T12:51:45;1.27;;;0.90;;
81355;SDS011;70811;51.152;-114.218;2023-07-16T12:54:11;1.38;;;0.80;;
81355;SDS011;70811;51.152;-114.218;2023-07-16T12:56:37;1.58;;;0.95;;
81355;SDS011;70811;51.152;-114.218;2023-07-16T12:59:04;1.70;;;0.98;;
81355;SDS011;70811;51.152;-114.218;2023-07-16T13:01:30;1.20;;;0.82;;
81355;SDS011;70811;51.152;-114.218;2023-07-16T13:03:56;1.60;;;0.88;;
81355;SDS011;70811;51.152;-114.218;2023-07-16T13:06:22;1.80;;;1.00;;
81355;SDS011;70811;51.152;-114.218;2023-07-16T13:08:47;1.90;;;1.05;;
81355;SDS011;70811;51.152;-114.218;2023-07-16T13:11:13;1.80;;;1.10;;
81355;SDS011;70811;51.152;-114.218;2023-07-16T13:13:39;1.63;;;0.90;;
81355;SDS011;70811;51.152;-114.218;2023-07-16T13:16:07;1.65;;;0.90;;
81355;SDS011;70811;51.152;-114.218;2023-07-16T13:18:32;1.70;;;1.00;;
81355;SDS011;70811;51.152;-114.218;2023-07-16T13:20:58;1.50;;;0.90;;
81355;SDS011;70811;51.152;-114.218;2023-07-16T13:23:24;1.75;;;1.05;;
81355;SDS011;70811;51.152;-114.218;2023-07-16T13:25:50;2.03;;;1.08;;
81355;SDS011;70811;51.152;-114.218;2023-07-16T13:28:18;1.63;;;1.08;;
81355;SDS011;70811;51.152;-114.218;2023-07-16T13:30:44;1.55;;;1.10;;
81355;SDS011;70811;51.152;-114.218;2023-07-16T13:33:10;1.60;;;1.00;;
81355;SDS011;70811;51.152;-114.218;2023-07-16T13:35:36;2.40;;;1.23;;
81355;SDS011;70811;51.152;-114.218;2023-07-16T13:38:01;2.05;;;1.20;;
81355;SDS011;70811;51.152;-114.218;2023-07-16T13:40:27;1.60;;;1.00;;
81355;SDS011;70811;51.152;-114.218;2023-07-16T13:42:53;1.85;;;1.10;;
81355;SDS011;70811;51.152;-114.218;2023-07-16T13:45:19;1.50;;;1.10;;
81355;SDS011;70811;51.152;-114.218;2023-07-16T13:47:45;1.60;;;1.00;;
81355;SDS011;70811;51.152;-114.218;2023-07-16T13:50:11;1.55;;;0.77;;
81355;SDS011;70811;51.152;-114.218;2023-07-16T13:52:37;2.00;;;1.02;;
81355;SDS011;70811;51.152;-114.218;2023-07-16T13:55:03;1.85;;;1.00;;
81355;SDS011;70811;51.152;-114.218;2023-07-16T13:57:29;2.13;;;1.25;;
81355;SDS011;70811;51.152;-114.218;2023-07-16T13:59:55;2.15;;;1.00;;
81355;SDS011;70811;51.152;-114.218;2023-07-16T14:02:21;1.65;;;1.10;;
81355;SDS011;70811;51.152;-114.218;2023-07-16T14:04:47;1.80;;;1.20;;
81355;SDS011;70811;51.152;-114.218;2023-07-16T14:07:13;1.83;;;1.10;;
81355;SDS011;70811;51.152;-114.218;2023-07-16T14:09:39;1.75;;;1.15;;
81355;SDS011;70811;51.152;-114.218;2023-07-16T14:12:05;2.28;;;1.15;;
81355;SDS011;70811;51.152;-114.218;2023-07-16T14:14:32;1.90;;;0.93;;
81355;SDS011;70811;51.152;-114.218;2023-07-16T14:16:58;2.33;;;1.30;;
81355;SDS011;70811;51.152;-114.218;2023-07-16T14:19:24;1.63;;;1.00;;
81355;SDS011;70811;51.152;-114.218;2023-07-16T14:21:50;2.05;;;1.20;;
81355;SDS011;70811;51.152;-114.218;2023-07-16T14:24:16;2.45;;;1.30;;
81355;SDS011;70811;51.152;-114.218;2023-07-16T14:26:42;1.80;;;0.98;;
81355;SDS011;70811;51.152;-114.218;2023-07-16T14:29:08;1.33;;;0.90;;
81355;SDS011;70811;51.152;-114.218;2023-07-16T14:31:36;1.52;;;0.98;;
81355;SDS011;70811;51.152;-114.218;2023-07-16T14:34:02;1.88;;;1.15;;
81355;SDS011;70811;51.152;-114.218;2023-07-16T14:36:28;1.50;;;1.00;;
81355;SDS011;70811;51.152;-114.218;2023-07-16T14:38:54;1.60;;;1.00;;
81355;SDS011;70811;51.152;-114.218;2023-07-16T14:41:20;1.65;;;0.93;;